Data for 12/12/2007

Time Sea-Level Adjusted Pressure Absolute Pressure Temperature Relative Humidity Dew Point   
(mb) (inHg) (mb) (inHg) (C) (F) (%) (C) (F)
00:05 1019 30.09 848 25.04 -7.9 17.8 71 -12.3 9.8
00:10 1019 30.09 848 25.04 -7.8 17.9 70 -12.3 9.8
00:15 1019 30.09 848 25.04 -7.9 17.7 71 -12.4 9.7
00:20 1019 30.09 848 25.04 -7.8 17.9 67 -12.9 8.8
00:25 1019 30.09 848 25.04 -7.5 18.5 66 -12.8 9
00:30 1019 30.09 848 25.04 -7.4 18.7 69 -12.2 10.1
00:35 1019 30.09 848 25.04 -7.2 19.1 67 -12.3 9.9
00:40 1019 30.09 848 25.04 -6.9 19.6 68 -11.8 10.8
00:45 1019 30.09 848 25.04 -6.7 19.9 69 -11.5 11.4
00:50 1019 30.09 848 25.04 -6.8 19.8 70 -11.3 11.6
00:55 1019 30.09 848 25.04 -6.8 19.8 69 -11.6 11.1
01:00 1019 30.09 848 25.04 -6.6 20.1 69 -11.4 11.4
01:05 1019 30.09 848 25.04 -6.5 20.2 69 -11.3 11.7
01:10 1019 30.09 848 25.04 -6.6 20.1 71 -11.1 12
01:15 1019 30.09 848 25.04 -6.8 19.8 72 -11 12.2
01:20 1019 30.09 848 25.04 -6.7 19.9 71 -11.1 12.1
01:25 1019 30.09 848 25.04 -6.6 20.2 75 -10.3 13.5
01:30 1018 30.06 848 25.04 -6.5 20.4 69 -11.2 11.8
01:35 1018 30.06 848 25.04 -6.2 20.8 67 -11.3 11.6
01:40 1018 30.06 848 25.04 -6.3 20.7 67 -11.4 11.6
01:45 1018 30.06 848 25.04 -6.4 20.4 68 -11.4 11.5
01:50 1018 30.06 848 25.04 -6.4 20.4 67 -11.5 11.3
01:55 1018 30.06 848 25.04 -6.4 20.5 67 -11.5 11.2
02:00 1018 30.06 848 25.04 -6.3 20.6 64 -12.1 10.3
02:05 1018 30.06 847 25.01 -6.3 20.7 68 -11.2 11.8
02:10 1018 30.06 847 25.01 -6.4 20.6 69 -11.1 12
02:15 1018 30.06 847 25.01 -6.4 20.4 66 -11.8 10.8
02:20 1018 30.06 847 25.01 -6.3 20.7 66 -11.6 11.1
02:25 1018 30.06 847 25.01 -6.2 20.8 66 -11.6 11
02:30 1018 30.06 847 25.01 -6.1 21.1 63 -12.1 10.3
02:35 1018 30.06 847 25.01 -5.9 21.4 61 -12.4 9.7
02:40 1018 30.06 847 25.01 -5.7 21.7 60 -12.3 9.9
02:45 1018 30.06 847 25.01 -5.5 22.1 58 -12.6 9.3
02:50 1018 30.06 847 25.01 -5.3 22.5 57 -12.4 9.6
02:55 1018 30.06 847 25.01 -5.1 22.8 56 -12.6 9.4
03:00 1018 30.06 847 25.01 -5 23.1 57 -12.3 9.8
03:05 1018 30.06 847 25.01 -5 23 59 -11.8 10.7
03:10 1018 30.06 847 25.01 -5.1 22.8 63 -11.2 11.9
03:15 1018 30.06 847 25.01 -5.3 22.5 65 -10.9 12.3
03:20 1018 30.06 847 25.01 -5.4 22.3 66 -10.8 12.6
03:25 1018 30.06 847 25.01 -5.5 22.2 67 -10.7 12.7
03:30 1018 30.06 847 25.01 -5.5 22.2 67 -10.7 12.8
03:35 1018 30.06 847 25.01 -5.3 22.4 66 -10.8 12.6
03:40 1018 30.06 847 25.01 -5.2 22.7 66 -10.7 12.8
03:45 1018 30.06 847 25.01 -5.1 22.8 63 -11.2 11.9
03:50 1018 30.06 847 25.01 -5 23 62 -11.2 11.9
03:55 1018 30.06 847 25.01 -5 23 67 -10.2 13.7
04:00 1017 30.03 847 25.01 -5.1 22.9 67 -10.3 13.5
04:05 1017 30.03 847 25.01 -5.1 22.8 64 -10.8 12.5
04:10 1017 30.03 847 25.01 -5.3 22.5 66 -10.6 13
04:15 1017 30.03 847 25.01 -5.5 22.2 69 -10.3 13.5
04:20 1017 30.03 846 24.98 -5.5 22.2 69 -10.2 13.6
04:25 1017 30.03 846 24.98 -5.5 22.1 74 -9.4 15.1
04:30 1017 30.03 846 24.98 -5.5 22 71 -10 14.1
04:35 1017 30.03 846 24.98 -5.4 22.3 69 -10.2 13.6
04:40 1017 30.03 846 24.98 -5.3 22.4 65 -10.9 12.3
04:45 1017 30.03 846 24.98 -5.1 22.8 59 -11.9 10.6
04:50 1017 30.03 846 24.98 -4.8 23.4 59 -11.7 11
04:55 1017 30.03 846 24.98 -4.8 23.4 62 -11 12.1
05:00 1017 30.03 846 24.98 -5.1 22.8 71 -9.6 14.7
05:05 1017 30.03 846 24.98 -5.4 22.3 73 -9.4 15
05:10 1017 30.03 847 25.01 -5.5 22.1 73 -9.6 14.7
05:15 1017 30.03 846 24.98 -5.5 22.2 73 -9.6 14.6
05:20 1017 30.03 846 24.98 -5.6 21.9 76 -9.2 15.4
05:25 1017 30.03 846 24.98 -5.8 21.6 72 -10.1 13.9
05:30 1017 30.03 846 24.98 -5.8 21.6 72 -10 14
05:35 1017 30.03 846 24.98 -5.7 21.7 67 -11 12.2
05:40 1017 30.03 846 24.98 -5.3 22.4 64 -11 12.1
05:45 1017 30.03 846 24.98 -5 23 60 -11.7 11
05:50 1017 30.03 846 24.98 -4.9 23.2 58 -12 10.5
05:55 1017 30.03 846 24.98 -4.9 23.2 64 -10.7 12.7
06:00 1017 30.03 846 24.98 -4.8 23.3 57 -12.1 10.2
06:05 1017 30.03 846 24.98 -4.5 23.9 63 -10.5 13.1
06:10 1017 30.03 846 24.98 -4.8 23.4 69 -9.7 14.5
06:15 1017 30.03 846 24.98 -5.2 22.7 69 -10.1 13.8
06:20 1017 30.03 846 24.98 -5.3 22.5 70 -10 14.1
06:25 1017 30.03 846 24.98 -5.3 22.4 70 -10 14
06:30 1017 30.03 846 24.98 -5.3 22.4 69 -10.1 13.7
06:35 1017 30.03 846 24.98 -5.2 22.7 69 -10 14.1
06:40 1017 30.03 846 24.98 -5.1 22.8 66 -10.4 13.2
06:45 1017 30.03 846 24.98 -5 23 62 -11.2 11.9
06:50 1017 30.03 846 24.98 -4.8 23.4 63 -10.9 12.5
06:55 1017 30.03 846 24.98 -4.5 23.8 61 -11 12.2
07:00 1017 30.03 846 24.98 -4.1 24.6 60 -10.8 12.6
07:05 1017 30.03 846 24.98 -3.8 25.2 58 -10.9 12.4
07:10 1017 30.03 846 24.98 -3.5 25.8 57 -10.7 12.7
07:15 1017 30.03 846 24.98 -3.3 26 57 -10.8 12.6
07:20 1017 30.03 846 24.98 -3.3 26.1 60 -10.1 13.9
07:25 1017 30.03 846 24.98 -3.8 25.2 65 -9.5 14.8
07:30 1017 30.03 847 25.01 -4.1 24.6 66 -9.6 14.7
07:35 1017 30.03 846 24.98 -4.4 24.2 67 -9.5 14.8
07:40 1017 30.03 846 24.98 -4.4 24.1 67 -9.5 14.8
07:45 1017 30.03 846 24.98 -4.4 24.2 67 -9.6 14.6
07:50 1017 30.03 846 24.98 -4.2 24.4 68 -9.3 15.2
07:55 1017 30.03 846 24.98 -4.4 24.1 69 -9.2 15.4
08:00 1017 30.03 846 24.98 -4.6 23.7 72 -8.9 16.1
08:05 1017 30.03 846 24.98 -4.8 23.3 73 -9 15.8
08:10 1017 30.03 846 24.98 -4.9 23.2 73 -9.1 15.6
08:15 1017 30.03 846 24.98 -4.8 23.3 72 -9.1 15.5
08:20 1017 30.03 846 24.98 -4.7 23.6 66 -10.1 13.7
08:25 1017 30.03 846 24.98 -4.3 24.3 63 -10.3 13.4
08:30 1017 30.03 846 24.98 -4.1 24.7 68 -9 15.7
08:35 1017 30.03 846 24.98 -4.2 24.4 67 -9.5 14.9
08:40 1017 30.03 846 24.98 -4.2 24.5 68 -9.3 15.3
08:45 1017 30.03 846 24.98 -4.2 24.4 69 -9.1 15.7
08:50 1017 30.03 846 24.98 -4.2 24.4 69 -9.1 15.6
08:55 1017 30.03 846 24.98 -4.1 24.6 66 -9.6 14.7
09:00 1017 30.03 846 24.98 -3.8 25.1 68 -8.8 16.1
09:05 1017 30.03 846 24.98 -3.5 25.7 65 -9.1 15.6
09:10 1017 30.03 846 24.98 -3.4 25.9 66 -8.9 16
09:15 1017 30.03 846 24.98 -3.3 26 67 -8.6 16.5
09:20 1017 30.03 846 24.98 -3.2 26.2 62 -9.4 15
09:25 1017 30.03 846 24.98 -2.9 26.8 63 -9 15.8
09:30 1017 30.03 846 24.98 -2.6 27.3 60 -9.3 15.3
09:35 1017 30.03 846 24.98 -2.3 27.8 61 -8.9 15.9
09:40 1017 30.03 846 24.98 -2.3 27.9 59 -9.3 15.2
09:45 1017 30.03 846 24.98 -2.2 28.1 59 -9.2 15.4
09:50 1017 30.03 846 24.98 -2 28.5 58 -9.2 15.5
09:55 1017 30.03 846 24.98 -1.7 29 57 -9.1 15.6
10:00 1017 30.03 846 24.98 -1.4 29.5 56 -9.1 15.6
10:05 1017 30.03 846 24.98 -1.3 29.7 56 -8.9 15.9
10:10 1017 30.03 846 24.98 -1.3 29.7 56 -9 15.8
10:15 1016 30 846 24.98 -1 30.1 56 -8.8 16.1
10:20 1017 30.03 846 24.98 -0.8 30.5 56 -8.7 16.4
10:25 1016 30 846 24.98 -0.8 30.6 55 -8.8 16.2
10:30 1017 30.03 846 24.98 -0.7 30.8 55 -8.6 16.5
10:35 1017 30.03 846 24.98 -0.7 30.7 54 -8.9 15.9
10:40 1017 30.03 846 24.98 -1 30.1 54 -9.3 15.2
10:45 1017 30.03 846 24.98 -1 30.3 54 -9.1 15.6
10:50 1017 30.03 846 24.98 -0.6 30.9 52 -9.2 15.4
10:55 1017 30.03 846 24.98 -0.4 31.3 53 -8.9 16.1
11:00 1017 30.03 846 24.98 -0.4 31.3 52 -9.2 15.5
11:05 1017 30.03 846 24.98 -0.6 30.9 53 -9 15.8
11:10 1017 30.03 846 24.98 -0.8 30.6 52 -9.4 15.1
11:15 1017 30.03 846 24.98 -0.8 30.6 53 -9.3 15.2
11:20 1017 30.03 846 24.98 -0.8 30.6 52 -9.6 14.8
11:25 1017 30.03 846 24.98 -0.4 31.2 45 -10.8 12.5
11:30 1017 30.03 846 24.98 0 32.1 50 -9.3 15.3
11:35 1017 30.03 846 24.98 -0.6 31 51 -9.6 14.7
11:40 1017 30.03 846 24.98 -0.6 31 45 -11.1 12.1
11:45 1017 30.03 846 24.98 -0.7 30.7 46 -10.9 12.4
11:50 1017 30.03 846 24.98 0 32.1 43 -11 12.2
11:55 1017 30.03 846 24.98 0.9 33.7 43 -10.3 13.5
12:00 1017 30.03 846 24.98 1.5 34.8 40 -10.6 12.9
12:05 1017 30.03 846 24.98 2 35.6 39 -10.5 13.1
12:10 1017 30.03 846 24.98 1.8 35.2 38 -11.1 12
12:15 1017 30.03 846 24.98 1.6 34.8 39 -10.9 12.3
12:20 1017 30.03 846 24.98 1.8 35.3 39 -10.8 12.5
12:25 1017 30.03 846 24.98 1.6 34.9 41 -10.4 13.4
12:30 1017 30.03 846 24.98 1.7 35.1 39 -10.7 12.7
12:35 1017 30.03 846 24.98 2.3 36.2 37 -11 12.2
12:40 1017 30.03 846 24.98 2.7 36.8 36 -11.1 12
12:45 1017 30.03 846 24.98 2.9 37.2 36 -10.7 12.7
12:50 1017 30.03 846 24.98 3 37.4 34 -11.3 11.7
12:55 1017 30.03 846 24.98 3.2 37.7 35 -11 12.2
13:00 1017 30.03 846 24.98 3.3 38 34 -11.1 12.1
13:05 1017 30.03 846 24.98 3.7 38.7 34 -10.9 12.4
13:10 1017 30.03 846 24.98 3.7 38.6 34 -11 12.2
13:15 1017 30.03 846 24.98 3.7 38.7 35 -10.5 13.1
13:20 1017 30.03 846 24.98 3.5 38.2 36 -10.3 13.5
13:25 1017 30.03 846 24.98 3.1 37.6 38 -10 14
13:30 1017 30.03 846 24.98 3.1 37.5 40 -9.3 15.2
13:35 1017 30.03 846 24.98 3.2 37.7 41 -9 15.8
13:40 1017 30.03 846 24.98 2.9 37.2 43 -8.7 16.4
13:45 1017 30.03 846 24.98 2.5 36.6 45 -8.3 17.1
13:50 1017 30.03 846 24.98 2.5 36.5 45 -8.2 17.3
13:55 1017 30.03 846 24.98 2.8 37 43 -8.5 16.6
14:00 1017 30.03 846 24.98 3.1 37.7 44 -8 17.6
14:05 1017 30.03 846 24.98 3.1 37.6 43 -8.4 16.9
14:10 1017 30.03 846 24.98 3.5 38.2 39 -9.1 15.6
14:15 1016 30 846 24.98 3.6 38.5 40 -8.9 16.1
14:20 1016 30 846 24.98 3.6 38.4 41 -8.6 16.5
14:25 1016 30 846 24.98 3.4 38.1 41 -8.6 16.5
14:30 1016 30 845 24.95 3.2 37.7 42 -8.4 16.9
14:35 1016 30 845 24.95 3.1 37.5 42 -8.7 16.3
14:40 1016 30 845 24.95 3.2 37.8 41 -8.7 16.3
14:45 1016 30 846 24.98 3 37.4 43 -8.2 17.2
14:50 1016 30 846 24.98 3 37.3 43 -8.6 16.6
14:55 1016 30 846 24.98 3 37.4 43 -8.4 16.8
15:00 1016 30 846 24.98 2.9 37.3 43 -8.4 16.8
15:05 1016 30 846 24.98 2.8 37.1 44 -8.3 17.1
15:10 1016 30 846 24.98 2.9 37.1 43 -8.6 16.5
15:15 1016 30 846 24.98 2.8 37.1 43 -8.6 16.6
15:20 1017 30.03 846 24.98 2.6 36.7 44 -8.5 16.8
15:25 1017 30.03 846 24.98 2.6 36.6 46 -8 17.7
15:30 1017 30.03 846 24.98 2.5 36.4 46 -8.1 17.4
15:35 1017 30.03 846 24.98 2.5 36.5 44 -8.4 16.8
15:40 1017 30.03 846 24.98 2.1 35.8 47 -8.1 17.3
15:45 1017 30.03 846 24.98 2.1 35.8 47 -8.2 17.3
15:50 1017 30.03 846 24.98 2.1 35.8 47 -8.1 17.4
15:55 1017 30.03 846 24.98 2.2 36 44 -8.7 16.3
16:00 1017 30.03 846 24.98 2.4 36.3 45 -8.4 16.9
16:05 1017 30.03 846 24.98 2.3 36.2 45 -8.3 17.1
16:10 1017 30.03 846 24.98 2.2 35.9 45 -8.4 16.8
16:15 1017 30.03 846 24.98 2.1 35.8 46 -8.5 16.7
16:20 1017 30.03 846 24.98 2 35.5 45 -8.8 16.1
16:25 1017 30.03 846 24.98 1.7 35 46 -8.6 16.5
16:30 1017 30.03 846 24.98 1.6 34.8 46 -8.8 16.2
16:35 1017 30.03 847 25.01 1.4 34.6 48 -8.4 16.9
16:40 1017 30.03 847 25.01 1.3 34.3 47 -8.9 16
16:45 1017 30.03 847 25.01 1.3 34.3 46 -9 15.7
16:50 1018 30.06 847 25.01 1.1 34 48 -8.7 16.4
16:55 1018 30.06 847 25.01 1 33.7 49 -8.7 16.3
17:00 1018 30.06 847 25.01 0.9 33.7 47 -9.2 15.5
17:05 1018 30.06 847 25.01 1 33.8 46 -9.4 15
17:10 1018 30.06 847 25.01 0.9 33.7 47 -9.1 15.6
17:15 1018 30.06 847 25.01 0.8 33.4 50 -8.4 16.8
17:20 1018 30.06 847 25.01 0.5 32.9 52 -8.2 17.2
17:25 1018 30.06 847 25.01 0.3 32.5 52 -8.5 16.8
17:30 1018 30.06 847 25.01 0.2 32.4 52 -8.6 16.5
17:35 1018 30.06 847 25.01 0.3 32.5 52 -8.6 16.6
17:40 1018 30.06 847 25.01 0.1 32.3 51 -8.9 15.9
17:45 1018 30.06 847 25.01 0.2 32.3 51 -8.8 16.2
17:50 1018 30.06 847 25.01 0.2 32.4 48 -9.5 14.8
17:55 1018 30.06 847 25.01 0.4 32.8 48 -9.3 15.3
18:00 1018 30.06 847 25.01 0.2 32.4 52 -8.6 16.6
18:05 1018 30.06 847 25.01 -0.1 31.9 52 -8.8 16.1
18:10 1018 30.06 848 25.04 -0.2 31.7 51 -9.2 15.4
18:15 1019 30.09 848 25.04 -0.2 31.6 51 -9.3 15.3
18:20 1019 30.09 848 25.04 -0.3 31.5 51 -9.3 15.2
18:25 1019 30.09 848 25.04 -0.4 31.4 49 -9.8 14.3
18:30 1019 30.09 848 25.04 -0.4 31.3 50 -9.6 14.7
18:35 1019 30.09 848 25.04 -0.6 31 51 -9.5 15
18:40 1019 30.09 848 25.04 -0.7 30.7 51 -9.6 14.7
18:45 1019 30.09 848 25.04 -1 30.3 52 -9.7 14.5
18:50 1019 30.09 848 25.04 -1 30.2 50 -10.1 13.8
18:55 1019 30.09 849 25.07 -0.9 30.3 49 -10.3 13.5
19:00 1019 30.09 849 25.07 -0.9 30.4 50 -10 13.9
19:05 1019 30.09 849 25.07 -0.9 30.3 50 -10.2 13.6
19:10 1020 30.12 849 25.07 -1 30.2 51 -9.9 14.2
19:15 1020 30.12 849 25.07 -1.1 30.1 50 -10.1 13.8
19:20 1020 30.12 849 25.07 -1.1 30 51 -10.1 13.8
19:25 1019 30.09 849 25.07 -1.2 29.8 49 -10.7 12.8
19:30 1019 30.09 848 25.04 -1.1 30 49 -10.7 12.8
19:35 1019 30.09 848 25.04 -1.2 29.8 48 -10.8 12.6
19:40 1019 30.09 848 25.04 -1.3 29.6 49 -10.8 12.5
19:45 1019 30.09 848 25.04 -1.5 29.4 50 -10.5 13
19:50 1019 30.09 848 25.04 -1.7 29 50 -10.7 12.7
19:55 1019 30.09 849 25.07 -1.8 28.7 51 -10.7 12.8
20:00 1019 30.09 849 25.07 -1.9 28.5 51 -10.7 12.7
20:05 1019 30.09 849 25.07 -2.1 28.2 53 -10.4 13.3
20:10 1019 30.09 849 25.07 -2.2 28 53 -10.7 12.8
20:15 1020 30.12 849 25.07 -2.3 27.8 53 -10.7 12.8
20:20 1020 30.12 849 25.07 -2.3 27.8 54 -10.6 13
20:25 1020 30.12 849 25.07 -2.4 27.7 54 -10.4 13.3
20:30 1020 30.12 849 25.07 -3 26.6 57 -10.4 13.3
20:35 1020 30.12 849 25.07 -3.2 26.3 57 -10.5 13.1
20:40 1020 30.12 849 25.07 -3.1 26.5 56 -10.6 13
20:45 1020 30.12 849 25.07 -3 26.7 57 -10.4 13.3
20:50 1020 30.12 849 25.07 -2.9 26.7 56 -10.5 13.1
20:55 1020 30.12 849 25.07 -3 26.6 57 -10.3 13.5
21:00 1020 30.12 849 25.07 -3.1 26.3 58 -10.4 13.4
21:05 1020 30.12 849 25.07 -3.3 26.1 58 -10.5 13.1
21:10 1020 30.12 849 25.07 -3.4 25.9 58 -10.5 13.1
21:15 1020 30.12 849 25.07 -3.5 25.8 59 -10.4 13.2
21:20 1020 30.12 849 25.07 -3.5 25.7 58 -10.5 13
21:25 1020 30.12 850 25.1 -3.6 25.6 59 -10.5 13.1
21:30 1020 30.12 850 25.1 -3.6 25.6 59 -10.4 13.3
21:35 1020 30.12 850 25.1 -3.8 25.1 60 -10.5 13.1
21:40 1021 30.15 850 25.1 -4.4 24.1 61 -10.9 12.3
21:45 1021 30.15 850 25.1 -4.3 24.3 60 -10.9 12.4
21:50 1020 30.12 850 25.1 -4.2 24.4 61 -10.8 12.6
21:55 1020 30.12 850 25.1 -4.3 24.2 61 -10.8 12.5
22:00 1020 30.12 850 25.1 -4.3 24.2 60 -11 12.3
22:05 1021 30.15 850 25.1 -4.2 24.5 60 -10.9 12.4
22:10 1021 30.15 850 25.1 -4 24.7 58 -11.1 12.1
22:15 1021 30.15 850 25.1 -4 24.8 58 -11.1 12.1
22:20 1021 30.15 850 25.1 -4 24.9 58 -11.1 12.1
22:25 1021 30.15 850 25.1 -3.9 24.9 58 -11.1 12.1
22:30 1021 30.15 850 25.1 -4.1 24.7 59 -11 12.2
22:35 1021 30.15 850 25.1 -4.4 24.1 59 -11.2 11.8
22:40 1021 30.15 850 25.1 -5.1 22.9 60 -11.6 11.1
22:45 1021 30.15 850 25.1 -5.5 22.1 62 -11.6 11.1
22:50 1021 30.15 850 25.1 -5.5 22.2 62 -11.6 11.1
22:55 1021 30.15 850 25.1 -5.3 22.5 61 -11.6 11.1
23:00 1021 30.15 850 25.1 -5.5 22.1 62 -11.8 10.8
23:05 1021 30.15 850 25.1 -5.8 21.6 62 -11.8 10.7
23:10 1021 30.15 850 25.1 -5.6 22 62 -11.8 10.7
23:15 1021 30.15 850 25.1 -5.5 22 61 -11.9 10.7
23:20 1021 30.15 850 25.1 -5.5 22.1 61 -11.8 10.8
23:25 1021 30.15 850 25.1 -5.4 22.2 61 -11.8 10.7
23:30 1021 30.15 850 25.1 -5.5 22.2 61 -11.8 10.7
23:35 1021 30.15 850 25.1 -5.4 22.3 61 -11.8 10.7
23:40 1021 30.15 850 25.1 -5.4 22.2 61 -11.9 10.6
23:45 1021 30.15 850 25.1 -5.4 22.3 61 -11.9 10.6
23:50 1021 30.15 850 25.1 -5.5 22 60 -12.1 10.3
23:55 1021 30.15 850 25.1 -6.2 20.9 63 -12.1 10.2
24:00 1021 30.15 850 25.1 -6.1 21.1 62 -12.3 9.9